Arcanum, Ohio
Current Conditions -  °F | °C
As of 10:15 PM on Monday 20 Oct 2014 (Local Time) from KVES Reporting Station
Clear Clear  
Wind Chill: 11°   Ceiling: Unl
Heat Index: 11°   Visibility: 10mi
Dew Point: 10°   Wind: 6mph
Humidity: 94%   Direction: 330°NNW
Pressure: 29.9"   Gusts: NA
Location:  39.99°N, 84.55°W
Report Text: KVES 210215Z AUTO 33005KT 10SM CLR 11/10 A2990 RMK AO2 LTG DSNT S
Loading
Personal Weather Stations






























Interactive Weather Map
Tropical Storm Tracking
New forecast layout! Learn more

10-Day Weather Forecast

Advertisements
Track Severe Weather on mobile